Time;durP1;ratioP1;P1;durP2;ratioP2;P2;SDS_P1;SDS_P2;PMS_P1;PMS_P2;Temp;Humidity;BMP_temperature;BMP_pressure;BME280_temperature;BME280_humidity;BME280_pressure;Samples;Min_cycle;Max_cycle;Signal;HPM_P1;HPM_P2
2020/12/08 00:00:03;;;;;;;14.25;10.32;;;;;;;9.07;64.35;93374.59;4979981;28;20066;-79
2020/12/08 00:02:29;;;;;;;12.68;9.63;;;;;;;9.09;64.46;93380.34;4997679;28;20466;-79
2020/12/08 00:04:54;;;;;;;15.95;10.13;;;;;;;9.01;64.34;93370.50;4972836;28;20157;-79
2020/12/08 00:07:20;;;;;;;16.65;10.23;;;;;;;9.08;64.17;93378.03;4988390;28;20494;-79
2020/12/08 00:09:45;;;;;;;29.10;18.33;;;;;;;9.09;64.06;93385.63;4975884;28;20061;-79
2020/12/08 00:12:10;;;;;;;24.15;14.35;;;;;;;8.99;64.13;93377.13;5041321;28;20690;-79
2020/12/08 00:14:36;;;;;;;15.13;10.15;;;;;;;9.04;64.57;93388.34;5079413;28;20051;-79
2020/12/08 00:17:02;;;;;;;13.60;9.65;;;;;;;9.00;64.63;93403.19;5055976;28;20508;-79
2020/12/08 00:19:29;;;;;;;12.18;10.00;;;;;;;8.89;64.70;93396.53;4986687;28;20041;-79
2020/12/08 00:21:54;;;;;;;26.55;15.98;;;;;;;8.90;64.52;93395.44;5004300;28;20038;-79
2020/12/08 00:24:20;;;;;;;15.35;10.73;;;;;;;8.92;64.33;93403.84;5053925;28;20048;-79
2020/12/08 00:26:45;;;;;;;19.65;14.77;;;;;;;8.81;64.59;93391.09;5031792;28;20396;-79
2020/12/08 00:29:11;;;;;;;28.38;17.17;;;;;;;8.94;64.64;93408.84;4978038;28;20465;-79
2020/12/08 00:31:37;;;;;;;15.30;10.38;;;;;;;8.95;64.54;93413.00;4997391;28;20034;-79
2020/12/08 00:34:04;;;;;;;12.18;9.35;;;;;;;8.96;64.61;93412.72;5000910;28;20043;-79
2020/12/08 00:36:30;;;;;;;11.50;9.38;;;;;;;8.95;64.73;93411.16;4974233;28;20053;-79
2020/12/08 00:38:55;;;;;;;14.82;9.98;;;;;;;8.94;64.81;93414.84;4973928;28;20923;-79
2020/12/08 00:41:22;;;;;;;14.80;10.50;;;;;;;8.96;64.73;93418.00;4974463;28;20038;-78
2020/12/08 00:43:50;;;;;;;11.70;9.00;;;;;;;8.99;64.62;93414.78;4984145;28;20033;-79
2020/12/08 00:46:17;;;;;;;17.40;10.93;;;;;;;8.93;64.67;93407.25;4978297;28;20444;-79
2020/12/08 00:48:44;;;;;;;14.50;10.55;;;;;;;8.93;64.50;93412.53;4975479;28;20070;-78
2020/12/08 00:51:10;;;;;;;98.00;17.42;;;;;;;8.93;64.29;93415.94;4977543;28;20086;-79
2020/12/08 00:53:36;;;;;;;14.40;10.02;;;;;;;8.84;64.76;93404.50;4972198;28;20050;-79
2020/12/08 00:56:08;;;;;;;20.17;14.23;;;;;;;8.78;65.01;93413.53;5003336;28;20081;-79
2020/12/08 00:58:34;;;;;;;15.15;12.45;;;;;;;8.78;65.33;93416.19;4976305;28;20022;-79
2020/12/08 01:00:59;;;;;;;26.27;19.67;;;;;;;8.75;65.84;93419.38;4977357;28;20364;-79
2020/12/08 01:03:25;;;;;;;14.90;13.02;;;;;;;8.77;65.93;93425.16;4977459;28;20042;-79
2020/12/08 01:05:50;;;;;;;13.77;10.63;;;;;;;8.80;65.84;93432.47;5012555;27;20137;-79
2020/12/08 01:08:16;;;;;;;12.93;10.57;;;;;;;8.89;65.58;93428.13;4985150;28;20077;-79
2020/12/08 01:10:41;;;;;;;17.42;11.85;;;;;;;8.89;65.51;93436.03;4973330;28;20030;-78
2020/12/08 01:13:06;;;;;;;13.38;11.95;;;;;;;8.88;65.25;93436.31;5024791;28;20089;-79
2020/12/08 01:15:32;;;;;;;13.82;11.48;;;;;;;8.83;65.54;93428.50;4975977;28;20052;-79
2020/12/08 01:17:58;;;;;;;25.15;18.35;;;;;;;8.82;65.39;93434.81;5028940;28;20402;-79
2020/12/08 01:20:23;;;;;;;19.33;14.38;;;;;;;8.85;65.27;93432.38;4989678;28;20055;-79
2020/12/08 01:22:51;;;;;;;11.30;9.90;;;;;;;8.85;64.94;93437.66;4999512;28;20034;-79
2020/12/08 01:25:16;;;;;;;12.88;11.05;;;;;;;8.85;65.03;93437.66;4986481;28;20058;-79
2020/12/08 01:27:42;;;;;;;17.73;13.32;;;;;;;8.86;64.82;93420.78;4979482;28;20154;-79
2020/12/08 01:30:07;;;;;;;15.50;11.82;;;;;;;8.84;64.81;93404.50;4980618;28;20046;-79
2020/12/08 01:32:33;;;;;;;17.13;11.98;;;;;;;8.96;64.56;93420.63;4972164;28;20043;-79
2020/12/08 01:34:58;;;;;;;10.43;9.32;;;;;;;8.90;64.63;93416.50;4984144;28;20191;-79
2020/12/08 01:37:24;;;;;;;10.43;8.38;;;;;;;8.90;64.47;93424.41;5002092;28;20023;-79
2020/12/08 01:39:49;;;;;;;12.23;8.00;;;;;;;8.92;64.34;93414.38;4973073;28;20150;-79
2020/12/08 01:42:15;;;;;;;10.60;8.90;;;;;;;8.91;64.52;93418.06;4981587;28;20042;-79
2020/12/08 01:44:47;;;;;;;11.27;10.05;;;;;;;8.91;65.15;93422.56;4984666;28;20034;-79
2020/12/08 01:47:15;;;;;;;13.15;11.13;;;;;;;8.85;65.42;93410.53;4978840;28;20586;-79
2020/12/08 01:49:42;;;;;;;10.85;9.60;;;;;;;8.84;65.66;93415.03;4980821;28;20069;-79
2020/12/08 01:52:07;;;;;;;11.98;9.57;;;;;;;8.93;65.35;93430.97;5008423;28;20043;-79
2020/12/08 01:54:33;;;;;;;15.85;12.25;;;;;;;8.89;65.55;93424.72;4989434;28;20068;-79
2020/12/08 01:56:58;;;;;;;29.48;18.58;;;;;;;8.94;65.43;93425.41;4989243;28;20042;-79
2020/12/08 01:59:24;;;;;;;28.92;18.25;;;;;;;8.92;65.61;93424.91;4992143;28;20041;-79
2020/12/08 02:01:49;;;;;;;27.58;17.95;;;;;;;8.93;65.20;93423.06;4985978;28;21104;-79
2020/12/08 02:04:15;;;;;;;18.35;13.18;;;;;;;8.92;65.12;93422.28;4986303;28;20023;-79
2020/12/08 02:06:40;;;;;;;19.80;14.00;;;;;;;9.00;65.27;93426.91;5022571;28;20033;-79
2020/12/08 02:09:06;;;;;;;27.20;17.90;;;;;;;9.01;65.15;93425.81;4995961;28;20049;-78
2020/12/08 02:11:32;;;;;;;30.77;18.38;;;;;;;8.95;65.30;93415.66;5002513;28;20038;-79
2020/12/08 02:13:57;;;;;;;20.60;14.38;;;;;;;8.93;65.30;93415.94;5026832;28;20036;-79
2020/12/08 02:16:23;;;;;;;21.70;14.55;;;;;;;8.92;65.61;93414.38;4984384;28;20030;-79
2020/12/08 02:18:48;;;;;;;17.92;12.40;;;;;;;8.89;65.72;93407.06;4995200;28;20046;-79
2020/12/08 02:21:15;;;;;;;24.63;12.85;;;;;;;8.96;65.68;93423.28;4993351;28;20561;-79
2020/12/08 02:23:49;;;;;;;15.63;10.05;;;;;;;8.97;65.29;93419.56;4986080;28;20056;-79
2020/12/08 02:26:15;;;;;;;13.05;9.30;;;;;;;9.01;65.28;93419.78;4987206;28;20047;-79
2020/12/08 02:28:40;;;;;;;18.92;13.30;;;;;;;8.96;65.50;93415.38;5001391;28;20031;-79
2020/12/08 02:31:06;;;;;;;18.27;11.80;;;;;;;9.01;65.39;93431.09;5003333;28;20068;-79
2020/12/08 02:33:31;;;;;;;22.67;16.35;;;;;;;8.94;65.44;93420.13;4978359;28;20061;-79
2020/12/08 02:35:57;;;;;;;16.80;12.95;;;;;;;8.91;65.85;93428.63;4986901;28;20913;-79
2020/12/08 02:38:24;;;;;;;18.42;13.55;;;;;;;8.97;65.67;93429.31;4969225;28;20058;-79
2020/12/08 02:40:50;;;;;;;19.17;12.98;;;;;;;8.98;65.68;93426.41;4981814;28;20031;-79
2020/12/08 02:43:15;;;;;;;17.25;12.73;;;;;;;8.99;65.41;93430.59;4983204;28;20085;-79
2020/12/08 02:45:41;;;;;;;16.88;12.75;;;;;;;8.98;65.61;93423.78;4983331;28;20067;-79
2020/12/08 02:48:07;;;;;;;15.65;11.88;;;;;;;8.95;65.75;93407.75;4990840;28;20043;-79
2020/12/08 02:50:33;;;;;;;19.17;13.38;;;;;;;8.83;65.92;93397.66;4979561;28;20046;-79
2020/12/08 02:52:58;;;;;;;20.27;13.95;;;;;;;8.96;65.95;93422.50;4986136;28;20046;-79
2020/12/08 02:55:24;;;;;;;21.33;14.52;;;;;;;8.94;66.30;93414.84;4990796;28;20396;-79
2020/12/08 02:57:49;;;;;;;20.85;12.70;;;;;;;8.88;66.48;93429.19;4999619;28;20054;-79
2020/12/08 03:00:15;;;;;;;23.13;12.85;;;;;;;8.84;66.35;93407.13;5005696;28;20037;-79
2020/12/08 03:02:40;;;;;;;18.48;12.48;;;;;;;8.76;66.53;93399.88;4984539;28;20404;-79
2020/12/08 03:05:06;;;;;;;17.95;11.32;;;;;;;8.80;66.43;93410.59;5007031;28;20038;-79
2020/12/08 03:07:31;;;;;;;51.42;14.82;;;;;;;8.76;66.50;93415.66;4996448;28;20508;-79
2020/12/08 03:09:57;;;;;;;16.02;9.90;;;;;;;8.67;66.65;93410.25;5018862;28;20583;-79
2020/12/08 03:12:22;;;;;;;39.17;11.95;;;;;;;8.65;66.72;93412.38;4993188;28;20035;-79
2020/12/08 03:14:48;;;;;;;20.33;11.82;;;;;;;8.57;67.33;93414.88;4987414;28;20504;-79
2020/12/08 03:17:13;;;;;;;21.67;12.15;;;;;;;8.57;67.43;93426.22;5000573;28;20036;-79
2020/12/08 03:19:39;;;;;;;36.45;14.02;;;;;;;8.53;67.27;93421.81;5063855;28;20765;-79
2020/12/08 03:22:05;;;;;;;39.92;14.50;;;;;;;8.56;66.87;93423.84;4999650;28;20108;-79
2020/12/08 03:24:31;;;;;;;84.93;18.42;;;;;;;8.54;67.10;93424.16;4977975;28;20540;-79
2020/12/08 03:26:56;;;;;;;33.80;14.68;;;;;;;8.56;67.45;93424.63;5022195;28;20050;-79
2020/12/08 03:29:22;;;;;;;43.17;14.32;;;;;;;8.54;67.83;93420.75;4989941;28;20035;-79
2020/12/08 03:31:47;;;;;;;33.20;14.13;;;;;;;8.58;67.26;93429.63;4967877;28;20057;-79
2020/12/08 03:34:13;;;;;;;41.67;15.07;;;;;;;8.58;67.43;93427.00;4980736;28;20058;-79
2020/12/08 03:36:38;;;;;;;30.17;14.68;;;;;;;8.58;67.43;93427.00;4982698;28;20050;-79
2020/12/08 03:39:04;;;;;;;34.38;14.75;;;;;;;8.61;67.41;93434.31;5013338;28;20420;-79
2020/12/08 03:41:29;;;;;;;38.38;13.73;;;;;;;8.60;67.15;93430.91;4988540;28;20086;-79
2020/12/08 03:43:55;;;;;;;20.98;11.82;;;;;;;8.59;66.88;93433.84;5021506;28;20047;-79
2020/12/08 03:46:22;;;;;;;22.13;12.25;;;;;;;8.58;66.94;93429.63;4993888;28;20026;-79
2020/12/08 03:48:48;;;;;;;19.65;11.02;;;;;;;8.58;67.04;93424.38;5000626;28;20087;-79
2020/12/08 03:51:15;;;;;;;23.00;11.65;;;;;;;8.63;66.96;93434.84;5009548;28;20548;-79
2020/12/08 03:53:41;;;;;;;25.08;15.23;;;;;;;8.56;67.37;93426.50;4979207;28;20522;-78
2020/12/08 03:56:19;;;;;;;31.42;13.38;;;;;;;8.69;67.08;93444.25;4994634;28;20030;-78
2020/12/08 03:58:45;;;;;;;25.38;14.23;;;;;;;8.63;67.23;93440.09;5002049;28;20022;-79
2020/12/08 04:01:17;;;;;;;22.45;11.60;;;;;;;8.61;67.35;93440.38;4994204;28;20028;-78
2020/12/08 04:03:47;;;;;;;24.10;13.30;;;;;;;8.62;67.35;93446.44;4989796;28;20529;-79
2020/12/08 04:06:13;;;;;;;43.40;21.33;;;;;;;8.69;67.03;93450.28;4992093;28;20532;-79
2020/12/08 04:08:46;;;;;;;36.00;19.92;;;;;;;8.69;66.92;93458.19;5016389;28;20039;-79
2020/12/08 04:11:16;;;;;;;30.48;17.00;;;;;;;8.74;66.80;93462.59;4975280;28;20069;-79
2020/12/08 04:13:42;;;;;;;27.67;17.67;;;;;;;8.75;66.72;93453.63;4981440;28;20340;-79
2020/12/08 04:16:12;;;;;;;36.83;20.02;;;;;;;8.79;66.98;93462.53;4983280;28;20061;-78
2020/12/08 04:18:38;;;;;;;25.45;18.02;;;;;;;8.72;67.09;93470.00;4984977;28;20038;-79
2020/12/08 04:21:03;;;;;;;29.42;19.92;;;;;;;8.70;67.54;93462.38;5006344;28;20075;-79
2020/12/08 04:23:29;;;;;;;28.45;20.58;;;;;;;8.73;67.28;93468.94;4974002;28;20556;-79
2020/12/08 04:25:54;;;;;;;29.08;21.00;;;;;;;8.69;67.45;93465.31;4972564;28;20062;-79
2020/12/08 04:28:20;;;;;;;28.65;18.83;;;;;;;8.66;67.49;93461.38;4976418;28;20400;-79
2020/12/08 04:30:45;;;;;;;23.90;16.02;;;;;;;8.74;67.25;93461.81;4974041;28;20049;-79
2020/12/08 04:33:13;;;;;;;38.05;22.83;;;;;;;8.68;67.44;93458.47;5040433;28;20048;-79
2020/12/08 04:35:42;;;;;;;25.63;17.05;;;;;;;8.71;67.49;93463.16;5030294;28;20046;-78
2020/12/08 04:38:11;;;;;;;30.55;18.15;;;;;;;8.79;67.44;93469.66;4993478;28;20050;-79
2020/12/08 04:40:37;;;;;;;28.70;17.60;;;;;;;8.78;67.26;93468.09;4992859;28;20417;-79
2020/12/08 04:43:04;;;;;;;29.52;18.50;;;;;;;8.74;67.35;93467.88;4978194;28;20021;-79
2020/12/08 04:45:31;;;;;;;32.83;20.65;;;;;;;8.69;67.13;93466.09;4973093;28;20039;-79
2020/12/08 04:48:03;;;;;;;34.67;20.90;;;;;;;8.72;67.83;93474.47;5001478;28;20043;-79
2020/12/08 04:50:31;;;;;;;55.55;21.52;;;;;;;8.71;67.85;93473.69;4981156;28;20066;-79
2020/12/08 04:52:56;;;;;;;36.85;20.33;;;;;;;8.66;68.34;93466.66;5029272;28;20070;-79
2020/12/08 04:55:22;;;;;;;30.92;18.55;;;;;;;8.53;68.23;93456.81;5072127;28;20569;-79
2020/12/08 04:57:49;;;;;;;36.50;16.88;;;;;;;8.59;68.08;93471.50;5009647;28;20041;-79
2020/12/08 05:00:14;;;;;;;27.48;14.82;;;;;;;8.61;68.14;93473.81;5076797;28;20059;-79
2020/12/08 05:02:47;;;;;;;27.52;16.67;;;;;;;8.54;67.94;93463.66;5039731;28;20038;-79
2020/12/08 05:05:14;;;;;;;43.25;21.70;;;;;;;8.53;67.95;93471.84;4976653;28;20043;-79
2020/12/08 05:07:39;;;;;;;27.77;18.83;;;;;;;8.56;68.77;93479.16;4998468;28;20072;-79
2020/12/08 05:10:04;;;;;;;40.88;19.90;;;;;;;8.45;68.98;93465.38;5005770;28;20050;-79
2020/12/08 05:12:30;;;;;;;37.30;18.52;;;;;;;8.47;69.13;93467.69;4974178;28;20408;-79
2020/12/08 05:14:55;;;;;;;33.70;20.60;;;;;;;8.51;68.59;93480.00;4961627;28;20046;-79
2020/12/08 05:17:26;;;;;;;38.83;24.40;;;;;;;8.50;68.76;93472.41;4976386;28;20053;-79
2020/12/08 05:20:20;;;;;;;32.78;20.02;;;;;;;8.63;68.36;93482.25;4974773;28;26856;-79
2020/12/08 05:22:56;;;;;;;31.35;20.50;;;;;;;8.54;68.18;93474.19;4978874;28;20031;-79
2020/12/08 05:25:25;;;;;;;37.17;21.80;;;;;;;8.59;68.29;93489.16;5000833;28;20041;-79
2020/12/08 05:27:52;;;;;;;34.47;20.42;;;;;;;8.54;68.20;93482.09;5069064;28;20043;-79
2020/12/08 05:30:17;;;;;;;36.13;19.95;;;;;;;8.66;68.02;93487.72;5070670;28;20048;-79
2020/12/08 05:32:44;;;;;;;41.78;20.80;;;;;;;8.64;67.99;93489.09;5025353;28;20038;-79
2020/12/08 05:35:11;;;;;;;44.15;20.63;;;;;;;8.71;67.99;93497.41;4992453;28;20034;-79
2020/12/08 05:37:39;;;;;;;46.35;21.10;;;;;;;8.70;68.02;93491.34;4995208;28;20103;-79
2020/12/08 05:40:10;;;;;;;34.38;20.80;;;;;;;8.74;68.12;93496.84;4989253;28;20041;-79
2020/12/08 05:42:41;;;;;;;40.50;21.23;;;;;;;8.76;67.76;93489.44;4978524;28;20804;-79
2020/12/08 05:45:09;;;;;;;40.40;23.25;;;;;;;8.84;67.67;93498.56;4987468;28;20036;-79
2020/12/08 05:47:43;;;;;;;42.78;25.67;;;;;;;8.84;67.42;93491.44;4979240;28;20037;-79
2020/12/08 05:50:09;;;;;;;45.90;23.30;;;;;;;8.88;67.19;93497.72;4979063;28;20067;-79
2020/12/08 05:52:36;;;;;;;31.23;20.67;;;;;;;8.89;67.17;93501.13;4990982;28;20030;-79
2020/12/08 05:55:11;;;;;;;32.55;18.73;;;;;;;8.89;66.73;93490.59;4983641;28;20027;-79
2020/12/08 05:57:39;;;;;;;94.88;28.27;;;;;;;8.87;67.26;93493.50;4974822;28;20147;-79
2020/12/08 06:00:07;;;;;;;41.80;23.35;;;;;;;8.87;68.16;93493.50;4981744;28;20157;-79
2020/12/08 06:02:33;;;;;;;62.42;29.58;;;;;;;8.83;68.10;93491.72;4968125;28;20813;-79
2020/12/08 06:04:59;;;;;;;50.05;25.98;;;;;;;8.86;68.18;93502.47;4964330;28;20103;-79
2020/12/08 06:07:32;;;;;;;41.08;22.10;;;;;;;8.86;67.89;93504.31;4977444;28;20489;-79
2020/12/08 06:10:08;;;;;;;44.45;22.30;;;;;;;8.83;67.33;93489.88;4989037;28;20115;-79
2020/12/08 06:12:34;;;;;;;40.92;22.88;;;;;;;8.84;67.46;93499.34;4976730;28;20038;-79
2020/12/08 06:14:59;;;;;;;55.90;23.55;;;;;;;8.91;67.76;93510.31;4977214;28;20679;-79
2020/12/08 06:17:25;;;;;;;35.70;19.85;;;;;;;8.91;67.98;93512.16;4982106;28;20047;-79
2020/12/08 06:19:50;;;;;;;41.08;24.63;;;;;;;8.88;67.46;93518.78;4971092;28;21055;-80
2020/12/08 06:22:17;;;;;;;44.42;22.70;;;;;;;8.87;67.54;93519.06;4984080;28;20389;-79
2020/12/08 06:24:54;;;;;;;35.65;18.05;;;;;;;8.88;67.02;93529.34;4978100;28;20437;-79
2020/12/08 06:27:21;;;;;;;30.73;18.83;;;;;;;8.83;67.21;93521.50;4988675;28;20096;-79
2020/12/08 06:29:54;;;;;;;38.95;20.67;;;;;;;8.89;67.45;93527.47;4986381;28;20663;-79
2020/12/08 06:32:27;;;;;;;38.97;20.50;;;;;;;8.89;67.58;93525.63;4984380;28;20117;-79
2020/12/08 06:35:06;;;;;;;52.55;24.88;;;;;;;8.99;67.20;93545.81;4979610;28;20050;-79
2020/12/08 06:37:32;;;;;;;69.40;29.27;;;;;;;8.93;66.45;93531.13;5012338;28;20022;-79
2020/12/08 06:40:09;;;;;;;50.90;26.70;;;;;;;9.01;66.19;93536.53;4975686;28;20032;-79
2020/12/08 06:42:34;;;;;;;32.17;18.45;;;;;;;9.09;65.98;93537.72;4985462;28;20074;-79
2020/12/08 06:45:26;;;;;;;36.08;21.25;;;;;;;9.13;66.20;93550.06;4984739;28;20096;-79
2020/12/08 06:47:52;;;;;;;28.50;17.45;;;;;;;9.07;66.35;93543.31;4986538;28;20067;-80
2020/12/08 06:50:28;;;;;;;27.73;16.13;;;;;;;9.12;66.29;93543.22;4984496;28;20069;-80
2020/12/08 06:52:59;;;;;;;27.33;16.40;;;;;;;9.17;65.42;93552.13;4990659;28;20050;-79
2020/12/08 06:55:26;;;;;;;24.35;15.88;;;;;;;9.13;65.51;93542.16;4988881;28;20176;-79
2020/12/08 06:57:52;;;;;;;22.17;15.35;;;;;;;9.16;64.88;93550.56;4995403;28;20036;-79
2020/12/08 07:00:18;;;;;;;28.83;16.75;;;;;;;9.23;65.28;93559.69;4984855;28;20042;-80
2020/12/08 07:02:50;;;;;;;27.98;15.95;;;;;;;9.21;65.27;93566.31;4986636;28;20074;-79
2020/12/08 07:05:20;;;;;;;28.27;16.38;;;;;;;9.20;65.00;93570.78;4971847;28;20047;-79
2020/12/08 07:07:47;;;;;;;27.08;16.50;;;;;;;9.23;64.86;93564.97;5005792;28;20022;-80
2020/12/08 07:10:13;;;;;;;27.15;17.17;;;;;;;9.29;64.54;93579.63;4977587;28;20026;-79
2020/12/08 07:12:49;;;;;;;25.17;15.95;;;;;;;9.28;64.37;93572.81;4963982;28;20121;-79
2020/12/08 07:15:32;;;;;;;26.27;15.43;;;;;;;9.31;64.35;93572.22;4977127;28;20722;-79
2020/12/08 07:18:02;;;;;;;27.70;16.58;;;;;;;9.37;64.52;93575.59;4966805;28;20534;-79
2020/12/08 07:20:28;;;;;;;27.33;16.98;;;;;;;9.40;64.71;93575.78;4971816;28;20041;-80
2020/12/08 07:22:54;;;;;;;30.45;17.20;;;;;;;9.43;64.72;93577.09;4970201;28;20038;-79
2020/12/08 07:25:21;;;;;;;25.80;16.40;;;;;;;9.38;63.89;93566.59;4981052;28;20031;-80
2020/12/08 07:27:49;;;;;;;28.90;16.38;;;;;;;9.44;63.67;93581.25;4973143;28;20041;-80
2020/12/08 07:30:18;;;;;;;27.90;16.60;;;;;;;9.41;63.37;93566.03;4966782;28;20047;-79
2020/12/08 07:32:43;;;;;;;27.15;15.35;;;;;;;9.49;63.54;93573.28;4968846;28;20035;-79
2020/12/08 07:35:18;;;;;;;24.70;15.93;;;;;;;9.64;63.09;93580.19;4979772;28;20107;-79
2020/12/08 07:37:44;;;;;;;25.08;16.08;;;;;;;9.61;63.11;93576.28;4994744;28;20056;-80
2020/12/08 07:40:12;;;;;;;27.38;16.92;;;;;;;9.68;63.13;93591.72;4992390;28;20060;-79
2020/12/08 07:42:44;;;;;;;25.75;16.63;;;;;;;9.50;62.51;93559.03;4989133;28;20378;-79
2020/12/08 07:45:10;;;;;;;27.60;16.65;;;;;;;9.61;62.74;93586.81;4991636;28;20584;-79
2020/12/08 07:47:35;;;;;;;29.73;18.38;;;;;;;9.61;62.92;93581.56;4985157;28;20121;-79
2020/12/08 07:50:03;;;;;;;31.60;19.17;;;;;;;9.60;62.76;93571.28;4992715;28;20506;-81
2020/12/08 07:52:28;;;;;;;31.95;18.52;;;;;;;9.56;62.91;93582.41;4983779;28;20050;-79
2020/12/08 07:54:54;;;;;;;31.65;20.00;;;;;;;9.58;63.32;93590.81;4989633;28;20038;-79
2020/12/08 07:57:19;;;;;;;31.95;20.77;;;;;;;9.58;63.45;93588.16;4987731;28;20629;-79
2020/12/08 07:59:45;;;;;;;33.38;22.15;;;;;;;9.59;63.46;93586.31;4988347;28;20042;-79
2020/12/08 08:02:10;;;;;;;32.38;20.77;;;;;;;9.66;63.47;93586.75;4990044;28;20133;-79
2020/12/08 08:04:36;;;;;;;41.72;24.25;;;;;;;9.61;62.62;93576.28;4995936;28;20045;-80
2020/12/08 08:07:01;;;;;;;36.15;24.50;;;;;;;9.67;63.12;93588.31;4988774;28;20357;-80
2020/12/08 08:09:27;;;;;;;37.80;23.00;;;;;;;9.68;63.45;93584.59;4987997;28;20061;-80
2020/12/08 08:11:52;;;;;;;35.33;22.73;;;;;;;9.70;63.39;93584.31;4993296;28;20053;-80
2020/12/08 08:14:18;;;;;;;32.65;21.20;;;;;;;9.79;63.09;93585.22;4975425;28;20135;-82
2020/12/08 08:16:43;;;;;;;36.85;21.60;;;;;;;9.77;63.08;93585.53;4974784;28;20379;-80
2020/12/08 08:19:09;;;;;;;32.72;22.65;;;;;;;9.87;63.09;93605.69;4989821;28;20019;-80
2020/12/08 08:21:34;;;;;;;40.85;23.73;;;;;;;9.93;62.89;93604.53;4993046;28;20046;-80
2020/12/08 08:24:00;;;;;;;32.05;21.58;;;;;;;9.86;63.38;93596.22;5021671;28;20450;-80
2020/12/08 08:26:27;;;;;;;34.15;21.20;;;;;;;9.92;62.95;93592.41;4988688;28;20062;-80
2020/12/08 08:28:53;;;;;;;31.73;20.83;;;;;;;9.98;62.35;93602.59;4986833;28;20093;-80
2020/12/08 08:31:18;;;;;;;36.65;24.38;;;;;;;10.04;62.35;93605.94;4982707;28;20019;-80
2020/12/08 08:33:44;;;;;;;88.00;49.25;;;;;;;10.09;62.82;93616.41;4982365;28;20050;-80
2020/12/08 08:36:10;;;;;;;44.40;27.17;;;;;;;10.06;63.15;93629.41;4984455;28;20072;-80
2020/12/08 08:38:35;;;;;;;45.97;29.05;;;;;;;10.02;63.27;93609.94;4988756;28;20042;-80
2020/12/08 08:41:00;;;;;;;37.60;24.95;;;;;;;9.93;63.17;93596.59;5001379;28;20116;-80
2020/12/08 08:43:27;;;;;;;36.58;23.30;;;;;;;10.15;62.69;93627.69;4998619;28;20034;-79
2020/12/08 08:45:54;;;;;;;36.70;23.38;;;;;;;10.12;62.30;93618.47;4992794;28;20065;-83
2020/12/08 08:48:23;;;;;;;35.75;23.65;;;;;;;10.08;62.45;93617.47;4992119;28;20045;-81
2020/12/08 08:50:49;;;;;;;39.22;24.63;;;;;;;10.11;62.50;93624.84;4988726;28;20043;-82
2020/12/08 08:53:15;;;;;;;42.08;28.55;;;;;;;10.09;62.55;93607.69;4977652;28;20030;-82
2020/12/08 08:55:43;;;;;;;40.53;26.13;;;;;;;10.30;62.70;93624.81;4986131;28;20105;-82
2020/12/08 08:58:09;;;;;;;37.60;25.65;;;;;;;10.33;62.70;93624.22;4992258;28;20025;-82
2020/12/08 09:00:34;;;;;;;42.60;25.55;;;;;;;10.29;61.31;93597.63;4987256;28;20042;-82
2020/12/08 09:03:00;;;;;;;36.25;25.08;;;;;;;10.53;61.31;93617.81;4991396;28;20060;-82
2020/12/08 09:05:26;;;;;;;39.20;25.73;;;;;;;10.56;60.92;93612.72;4984962;28;20087;-82
2020/12/08 09:07:53;;;;;;;38.72;25.83;;;;;;;10.71;60.59;93614.28;4998166;28;20049;-80
2020/12/08 09:10:18;;;;;;;36.05;24.88;;;;;;;10.60;60.43;93611.06;4981167;28;20015;-80
2020/12/08 09:12:44;;;;;;;42.05;27.00;;;;;;;10.62;60.36;93611.53;4993047;28;20050;-80
2020/12/08 09:15:10;;;;;;;38.92;25.95;;;;;;;10.65;59.80;93605.66;4984909;28;20053;-80
2020/12/08 09:17:36;;;;;;;36.55;25.10;;;;;;;10.76;59.85;93607.03;5000766;27;20038;-80
2020/12/08 09:20:02;;;;;;;37.60;25.33;;;;;;;10.80;59.38;93613.31;5002026;28;20093;-80
2020/12/08 09:22:28;;;;;;;49.50;31.42;;;;;;;10.74;60.20;93603.94;4988862;28;20585;-80
2020/12/08 09:24:54;;;;;;;44.58;30.15;;;;;;;10.80;61.33;93599.31;4999177;28;20064;-79
2020/12/08 09:27:20;;;;;;;50.78;34.25;;;;;;;10.83;60.80;93599.53;5054272;28;20406;-79
2020/12/08 09:29:45;;;;;;;50.65;31.70;;;;;;;10.72;60.28;93573.56;5034007;28;20038;-79
2020/12/08 09:32:11;;;;;;;49.38;31.50;;;;;;;10.82;60.12;93590.00;5009612;28;20404;-79
2020/12/08 09:34:37;;;;;;;48.40;32.22;;;;;;;10.92;60.22;93596.97;4976006;28;20030;-80
2020/12/08 09:37:03;;;;;;;50.83;32.50;;;;;;;10.84;60.61;93587.88;5010449;28;20030;-80
2020/12/08 09:39:29;;;;;;;50.03;33.22;;;;;;;10.91;60.70;93594.59;4991822;28;20041;-82
2020/12/08 09:41:56;;;;;;;60.40;39.13;;;;;;;10.90;60.77;93590.41;5008857;28;20133;-80
2020/12/08 09:44:22;;;;;;;58.55;38.95;;;;;;;10.81;61.06;93592.94;4986480;28;20039;-81
2020/12/08 09:46:48;;;;;;;55.15;37.00;;;;;;;10.69;60.99;93590.81;4988164;28;20139;-80
2020/12/08 09:49:14;;;;;;;57.38;35.25;;;;;;;10.61;60.68;93588.84;4974719;28;20483;-80
2020/12/08 09:51:40;;;;;;;52.72;36.22;;;;;;;10.62;60.71;93595.69;4980231;28;20085;-80
2020/12/08 09:54:06;;;;;;;65.90;38.78;;;;;;;10.66;61.16;93591.38;4996526;28;20073;-80
2020/12/08 09:56:32;;;;;;;58.63;36.78;;;;;;;10.59;61.39;93591.00;4987441;28;20046;-80
2020/12/08 09:58:59;;;;;;;57.15;36.47;;;;;;;10.57;61.16;93577.28;4988777;28;20038;-83
2020/12/08 10:01:32;;;;;;;57.13;38.28;;;;;;;10.64;61.55;93587.47;4991451;28;20037;-82
2020/12/08 10:03:57;;;;;;;53.75;37.08;;;;;;;10.64;61.34;93592.75;4976200;28;20040;-79
2020/12/08 10:06:23;;;;;;;63.50;38.95;;;;;;;10.59;60.55;93580.44;4972522;28;20080;-80
2020/12/08 10:08:49;;;;;;;62.47;39.70;;;;;;;10.68;61.34;93591.88;4971166;28;20058;-79
2020/12/08 10:11:15;;;;;;;54.90;37.45;;;;;;;10.66;61.82;93596.66;4963363;28;20046;-81
2020/12/08 10:13:43;;;;;;;64.13;39.25;;;;;;;10.52;61.41;93574.75;4957149;28;20027;-80
2020/12/08 10:16:09;;;;;;;63.78;39.35;;;;;;;10.55;61.06;93576.81;4995331;28;20073;-80
2020/12/08 10:18:35;;;;;;;60.33;38.58;;;;;;;10.68;60.71;93588.44;4973066;28;20048;-80
2020/12/08 10:21:02;;;;;;;71.28;43.20;;;;;;;10.70;61.61;93587.06;4984717;28;20050;-80
2020/12/08 10:23:27;;;;;;;59.13;38.47;;;;;;;10.65;61.77;93599.63;4982378;28;20083;-80
2020/12/08 10:25:56;;;;;;;64.80;38.53;;;;;;;10.61;61.86;93583.53;4984676;28;20046;-83
2020/12/08 10:28:24;;;;;;;56.72;37.60;;;;;;;10.72;61.25;93579.63;5006965;28;20026;-83
2020/12/08 10:30:50;;;;;;;61.17;41.92;;;;;;;10.72;61.01;93579.63;4974980;28;20058;-80
2020/12/08 10:33:15;;;;;;;61.08;39.13;;;;;;;10.79;61.33;93593.25;4988804;28;20520;-79
2020/12/08 10:35:41;;;;;;;65.35;41.65;;;;;;;10.79;60.86;93589.84;4993740;28;20084;-78
2020/12/08 10:38:07;;;;;;;63.47;39.83;;;;;;;10.89;60.62;93578.28;5011591;28;20043;-78
2020/12/08 10:40:32;;;;;;;61.55;39.42;;;;;;;10.83;61.19;93585.50;5064491;28;20039;-82
2020/12/08 10:42:58;;;;;;;63.03;42.17;;;;;;;10.79;60.92;93555.47;4981869;28;20012;-82
2020/12/08 10:45:23;;;;;;;64.65;42.33;;;;;;;10.90;61.28;93577.19;4989991;28;20043;-80
2020/12/08 10:47:49;;;;;;;63.13;38.53;;;;;;;10.96;61.37;93576.00;4967519;28;20477;-80
2020/12/08 10:50:14;;;;;;;59.45;38.47;;;;;;;10.94;61.18;93575.53;4993367;28;20402;-79
2020/12/08 10:52:40;;;;;;;57.35;37.40;;;;;;;10.86;62.06;93575.13;5063589;28;20024;-81
2020/12/08 10:55:05;;;;;;;61.40;39.63;;;;;;;10.81;62.39;93564.66;4998531;28;20023;-80
2020/12/08 10:57:31;;;;;;;61.85;38.67;;;;;;;10.94;61.70;93583.47;4978411;28;20088;-80
2020/12/08 10:59:57;;;;;;;63.97;38.55;;;;;;;10.94;60.94;93575.53;4989267;28;20935;-80
2020/12/08 11:02:23;;;;;;;60.75;40.38;;;;;;;11.03;61.47;93589.63;4989371;28;20107;-80
2020/12/08 11:04:48;;;;;;;69.57;43.63;;;;;;;10.96;61.17;93583.94;4976446;28;20038;-80
2020/12/08 11:07:13;;;;;;;65.55;40.42;;;;;;;11.02;60.80;93588.81;4995738;28;20018;-80
2020/12/08 11:09:39;;;;;;;65.65;41.67;;;;;;;11.00;60.75;93587.53;4980838;28;20038;-80
2020/12/08 11:12:04;;;;;;;61.67;38.10;;;;;;;11.00;60.77;93574.31;4966931;28;20526;-80
2020/12/08 11:14:30;;;;;;;64.70;38.25;;;;;;;10.98;60.30;93573.84;4966909;28;20512;-80
2020/12/08 11:16:58;;;;;;;66.25;41.08;;;;;;;11.13;60.35;93589.41;4968807;28;20050;-80
2020/12/08 11:19:23;;;;;;;62.88;37.70;;;;;;;11.06;60.38;93565.22;4970860;28;20547;-81
2020/12/08 11:21:49;;;;;;;58.00;39.35;;;;;;;11.14;60.33;93572.47;4976168;28;20051;-81